Alpine Moment — VREV7 — position and weather

sailwx.info

Track history (hours):
 
Tides and Currents Weather Stations Pressure Air Temp Water Temp Dewpoint Dewpoint Depression Visibility Wind Speed Wind Dir Waves Ship Positions

Alpine Moment

Last reported at 2017-Apr-24 15:48 UTC. Time now 2017-Apr-26 13:47 UTC.
Position N 09°13' W 079°55'.

Length 183 m; draft 10 m.

Type: Tanker. MMSI: 477185800.

Date/timePositionNaut miles runAvg speedWind from/ knotsBaromVisibWave heightAir tempDewpointWater temp
2017-Apr-24 15:48N 09°13' W 079°55'0 1.5
2017-Apr-24 15:29N 09°13' W 079°56'0 0.0
2017-Apr-24 14:56N 09°13' W 079°56'0 0.2
2017-Apr-24 14:13N 09°13' W 079°56'3 3.7
2017-Apr-24 13:31N 09°15' W 079°55'1 1.8
2017-Apr-24 13:00N 09°16' W 079°55'0 0.3
2017-Apr-24 12:26N 09°16' W 079°55'0 0.4
2017-Apr-24 12:00N 09°17' W 079°55'0 0.6
2017-Apr-24 11:31N 09°17' W 079°55'1 2.2
2017-Apr-24 11:00N 09°18' W 079°55'3 6.9
2017-Apr-24 10:31N 09°21' W 079°55'2 4.8
2017-Apr-24 10:00N 09°24' W 079°55'2 4.5
2017-Apr-24 09:30N 09°25' W 079°57'0 0.1
2017-Apr-24 08:39N 09°25' W 079°57'0 0.0
2017-Apr-24 08:21N 09°25' W 079°57'0 0.0
2017-Apr-24 08:00N 09°25' W 079°57'0 0.0
2017-Apr-24 06:39N 09°25' W 079°57'0 0.0
2017-Apr-24 06:09N 09°25' W 079°57'0 0.0
2017-Apr-24 05:57N 09°25' W 079°57'0 0.0
2017-Apr-24 05:00N 09°25' W 079°57'0 0.1
2017-Apr-24 04:30N 09°25' W 079°57'0 0.0
2017-Apr-24 03:51N 09°25' W 079°57'0 0.0
2017-Apr-24 03:00N 09°25' W 079°57'0 0.0
2017-Apr-24 02:21N 09°25' W 079°57'0 0.0
2017-Apr-24 01:57N 09°25' W 079°57'0 0.0
2017-Apr-24 01:30N 09°25' W 079°57'0 0.0
2017-Apr-24 01:00N 09°25' W 079°57'0 0.0
2017-Apr-24 00:26N 09°25' W 079°57'0 0.0
2017-Apr-24 00:00N 09°25' W 079°57'0 0.0
2017-Apr-23 23:29N 09°25' W 079°57'0 0.0
2017-Apr-23 21:41N 09°25' W 079°57'0 0.0
2017-Apr-23 21:20N 09°25' W 079°57'0 0.0
2017-Apr-23 20:53N 09°25' W 079°57'0 0.0
2017-Apr-23 19:50N 09°25' W 079°57'0 0.0
2017-Apr-23 19:26N 09°25' W 079°57'0 0.0
2017-Apr-23 18:57N 09°25' W 079°57'0 0.0
2017-Apr-23 17:50N 09°25' W 079°57'0 0.0
2017-Apr-23 17:29N 09°25' W 079°57'0 0.0
2017-Apr-23 16:56N 09°25' W 079°57'0 0.1
2017-Apr-23 16:23N 09°25' W 079°57'0 0.2
2017-Apr-23 15:56N 09°25' W 079°57'0 0.3
2017-Apr-23 15:30N 09°25' W 079°57'3 6.4
2017-Apr-23 15:00N 09°28' W 079°55'  
2017-Apr-18 04:11N 29°34' W 094°55'410.8
2017-Apr-18 03:51N 29°37' W 094°57'6 9.8
2017-Apr-18 03:17N 29°42' W 095°00'2 4.9
2017-Apr-18 02:52N 29°44' W 095°01'0 0.0
2017-Apr-16 13:28N 29°44' W 095°01'2 3.0
2017-Apr-16 12:56N 29°42' W 095°01'  
Track history (hours):
 
Tides and Currents Weather Stations Pressure Air Temp Water Temp Dewpoint Dewpoint Depression Visibility Wind Speed Wind Dir Waves Ship Positions

Alpine Moment

Last reported at 2017-Apr-24 15:48 UTC. Time now 2017-Apr-26 13:47 UTC.
Position N 09°13' W 079°55'.

Length 183 m; draft 10 m.

Type: Tanker. MMSI: 477185800.

Date/timePositionNaut miles runAvg speedWind from/ knotsBaromVisibWave heightAir tempDewpointWater temp
2017-Apr-24 15:48N 09°13' W 079°55'0 1.5
2017-Apr-24 15:29N 09°13' W 079°56'0 0.0
2017-Apr-24 14:56N 09°13' W 079°56'0 0.2
2017-Apr-24 14:13N 09°13' W 079°56'3 3.7
2017-Apr-24 13:31N 09°15' W 079°55'1 1.8
2017-Apr-24 13:00N 09°16' W 079°55'0 0.3
2017-Apr-24 12:26N 09°16' W 079°55'0 0.4
2017-Apr-24 12:00N 09°17' W 079°55'0 0.6
2017-Apr-24 11:31N 09°17' W 079°55'1 2.2
2017-Apr-24 11:00N 09°18' W 079°55'3 6.9
2017-Apr-24 10:31N 09°21' W 079°55'2 4.8
2017-Apr-24 10:00N 09°24' W 079°55'2 4.5
2017-Apr-24 09:30N 09°25' W 079°57'0 0.1
2017-Apr-24 08:39N 09°25' W 079°57'0 0.0
2017-Apr-24 08:21N 09°25' W 079°57'0 0.0
2017-Apr-24 08:00N 09°25' W 079°57'0 0.0
2017-Apr-24 06:39N 09°25' W 079°57'0 0.0
2017-Apr-24 06:09N 09°25' W 079°57'0 0.0
2017-Apr-24 05:57N 09°25' W 079°57'0 0.0
2017-Apr-24 05:00N 09°25' W 079°57'0 0.1
2017-Apr-24 04:30N 09°25' W 079°57'0 0.0
2017-Apr-24 03:51N 09°25' W 079°57'0 0.0
2017-Apr-24 03:00N 09°25' W 079°57'0 0.0
2017-Apr-24 02:21N 09°25' W 079°57'0 0.0
2017-Apr-24 01:57N 09°25' W 079°57'0 0.0
2017-Apr-24 01:30N 09°25' W 079°57'0 0.0
2017-Apr-24 01:00N 09°25' W 079°57'0 0.0
2017-Apr-24 00:26N 09°25' W 079°57'0 0.0
2017-Apr-24 00:00N 09°25' W 079°57'0 0.0
2017-Apr-23 23:29N 09°25' W 079°57'0 0.0
2017-Apr-23 21:41N 09°25' W 079°57'0 0.0
2017-Apr-23 21:20N 09°25' W 079°57'0 0.0
2017-Apr-23 20:53N 09°25' W 079°57'0 0.0
2017-Apr-23 19:50N 09°25' W 079°57'0 0.0
2017-Apr-23 19:26N 09°25' W 079°57'0 0.0
2017-Apr-23 18:57N 09°25' W 079°57'0 0.0
2017-Apr-23 17:50N 09°25' W 079°57'0 0.0
2017-Apr-23 17:29N 09°25' W 079°57'0 0.0
2017-Apr-23 16:56N 09°25' W 079°57'0 0.1
2017-Apr-23 16:23N 09°25' W 079°57'0 0.2
2017-Apr-23 15:56N 09°25' W 079°57'0 0.3
2017-Apr-23 15:30N 09°25' W 079°57'3 6.4
2017-Apr-23 15:00N 09°28' W 079°55'  
2017-Apr-18 04:11N 29°34' W 094°55'410.8
2017-Apr-18 03:51N 29°37' W 094°57'6 9.8
2017-Apr-18 03:17N 29°42' W 095°00'2 4.9
2017-Apr-18 02:52N 29°44' W 095°01'0 0.0
2017-Apr-16 13:28N 29°44' W 095°01'2 3.0
2017-Apr-16 12:56N 29°42' W 095°01'  

Dump ship's entire track history